Time;durP1;ratioP1;P1;durP2;ratioP2;P2;SDS_P1;SDS_P2;PMS_P1;PMS_P2;Temp;Humidity;BMP_temperature;BMP_pressure;BME280_temperature;BME280_humidity;BME280_pressure;Samples;Min_cycle;Max_cycle;Signal;HPM_P1;HPM_P2
2022/11/06 00:00:23;;;;;;;10.77;5.07;;;10.30;99.90;;;;;;5123754;27;20482;-74
2022/11/06 00:02:49;;;;;;;10.23;5.25;;;10.30;99.90;;;;;;5128088;27;20398;-74
2022/11/06 00:07:59;;;;;;;9.57;5.70;;;10.30;99.90;;;;;;5119901;27;20409;-74
2022/11/06 00:10:24;;;;;;;9.98;5.13;;;10.30;99.90;;;;;;5129435;27;20502;-74
2022/11/06 00:12:50;;;;;;;10.30;5.45;;;10.30;99.90;;;;;;5116551;27;20399;-74
2022/11/06 00:15:16;;;;;;;10.87;5.60;;;10.30;99.90;;;;;;5122540;27;20403;-74
2022/11/06 00:17:42;;;;;;;10.35;5.72;;;10.20;99.90;;;;;;5107343;28;20483;-74
2022/11/06 00:20:08;;;;;;;9.85;5.90;;;10.30;99.90;;;;;;5109056;27;20406;-74
2022/11/06 00:22:35;;;;;;;8.25;5.22;;;10.20;99.90;;;;;;5108864;27;20495;-74
2022/11/06 00:25:02;;;;;;;10.68;5.35;;;10.20;99.90;;;;;;5107672;28;20407;-74
2022/11/06 00:27:27;;;;;;;9.75;5.55;;;10.20;99.90;;;;;;5121669;27;20426;-74
2022/11/06 00:29:53;;;;;;;8.53;5.23;;;10.20;99.90;;;;;;5129617;27;20415;-74
2022/11/06 00:32:19;;;;;;;11.98;5.40;;;10.20;99.90;;;;;;5117005;27;20398;-74
2022/11/06 00:34:45;;;;;;;10.47;5.63;;;10.20;99.90;;;;;;5117926;27;20402;-74
2022/11/06 00:37:11;;;;;;;11.60;5.57;;;10.20;99.90;;;;;;5109107;28;20404;-74
2022/11/06 00:39:36;;;;;;;12.10;5.40;;;10.20;99.90;;;;;;5118850;27;20394;-74
2022/11/06 00:42:02;;;;;;;10.47;5.97;;;10.20;99.90;;;;;;5128450;27;20451;-74
2022/11/06 00:44:27;;;;;;;11.23;5.90;;;10.20;99.90;;;;;;5099206;28;20400;-74
2022/11/06 00:46:53;;;;;;;13.07;6.25;;;10.20;99.90;;;;;;5108203;28;20551;-74
2022/11/06 00:49:18;;;;;;;10.50;6.27;;;10.10;99.90;;;;;;5128776;28;20892;-74
2022/11/06 00:51:44;;;;;;;14.50;7.47;;;10.10;99.90;;;;;;5128698;28;20406;-74
2022/11/06 00:54:12;;;;;;;13.57;7.33;;;10.10;99.90;;;;;;5118554;28;20816;-74
2022/11/06 00:56:37;;;;;;;11.10;7.05;;;10.10;99.90;;;;;;5104554;28;20994;-74
2022/11/06 00:59:05;;;;;;;13.18;7.60;;;10.00;99.90;;;;;;5119548;28;20398;-74
2022/11/06 01:01:37;;;;;;;13.75;7.97;;;10.00;99.90;;;;;;5115384;28;20457;-74
2022/11/06 01:04:06;;;;;;;15.73;8.73;;;9.90;99.90;;;;;;5126616;28;20773;-74
2022/11/06 01:06:35;;;;;;;14.40;8.30;;;9.90;99.90;;;;;;5128511;28;20430;-74
2022/11/06 01:09:03;;;;;;;13.30;8.50;;;9.90;99.90;;;;;;5115861;28;20396;-73
2022/11/06 01:11:34;;;;;;;16.77;8.95;;;9.80;99.90;;;;;;5123213;28;20925;-73
2022/11/06 01:14:02;;;;;;;16.15;9.80;;;9.80;99.90;;;;;;5122550;28;20407;-73
2022/11/06 01:16:28;;;;;;;14.63;9.38;;;9.80;99.90;;;;;;5120875;28;20407;-73
2022/11/06 01:18:55;;;;;;;14.23;9.57;;;9.80;99.90;;;;;;5123260;28;20398;-73
2022/11/06 01:21:25;;;;;;;13.63;9.25;;;9.80;99.90;;;;;;5106952;28;20493;-74
2022/11/06 01:23:58;;;;;;;16.50;9.27;;;9.80;99.90;;;;;;5111856;28;20471;-74
2022/11/06 01:26:25;;;;;;;14.80;9.45;;;9.80;99.90;;;;;;5128528;28;20505;-74
2022/11/06 01:28:51;;;;;;;16.17;9.95;;;9.70;99.90;;;;;;5126532;28;20869;-74
2022/11/06 01:31:20;;;;;;;17.15;9.90;;;9.70;99.90;;;;;;5101283;28;20755;-74
2022/11/06 01:33:46;;;;;;;14.90;9.30;;;9.70;99.90;;;;;;5124882;27;21174;-74
2022/11/06 01:36:14;;;;;;;13.87;9.20;;;9.70;99.90;;;;;;5131450;27;20479;-74
2022/11/06 01:38:44;;;;;;;17.75;9.63;;;9.70;99.90;;;;;;5099924;27;20414;-74
2022/11/06 01:41:19;;;;;;;14.32;9.77;;;9.70;99.90;;;;;;5110068;28;20441;-74
2022/11/06 01:43:57;;;;;;;17.27;9.48;;;9.70;99.90;;;;;;5131040;27;20425;-74
2022/11/06 01:46:25;;;;;;;15.23;9.68;;;9.70;99.90;;;;;;5110917;28;20921;-74
2022/11/06 01:48:56;;;;;;;15.83;8.70;;;9.70;99.90;;;;;;5123829;27;20407;-74
2022/11/06 01:51:25;;;;;;;15.55;9.80;;;9.70;99.90;;;;;;5131665;27;20413;-74
2022/11/06 01:53:52;;;;;;;14.30;9.15;;;9.70;99.90;;;;;;5120796;27;20451;-73
2022/11/06 01:56:19;;;;;;;14.50;9.45;;;9.70;99.90;;;;;;5131734;27;20447;-74
2022/11/06 01:58:47;;;;;;;16.15;9.85;;;9.70;99.90;;;;;;5132372;27;20394;-74
2022/11/06 02:01:14;;;;;;;16.58;9.40;;;9.70;99.90;;;;;;5130295;27;20414;-74
2022/11/06 02:03:47;;;;;;;13.87;9.63;;;9.70;99.90;;;;;;5122594;27;20487;-74
2022/11/06 02:06:12;;;;;;;13.35;9.57;;;9.70;99.90;;;;;;5129475;27;20430;-73
2022/11/06 02:08:38;;;;;;;14.80;9.63;;;9.70;99.90;;;;;;5131189;27;20408;-74
2022/11/06 02:11:04;;;;;;;15.37;9.67;;;9.70;99.90;;;;;;5112662;27;20490;-74
2022/11/06 02:13:51;;;;;;;17.30;10.07;;;9.70;99.90;;;;;;5116483;27;20420;-73
2022/11/06 02:16:39;;;;;;;16.92;10.75;;;9.70;99.90;;;;;;5117722;27;20442;-73
2022/11/06 02:19:34;;;;;;;15.80;10.20;;;9.70;99.90;;;;;;5128260;27;20407;-73
2022/11/06 02:22:24;;;;;;;16.25;11.07;;;9.70;99.90;;;;;;5116024;27;20404;-74
2022/11/06 02:25:11;;;;;;;17.17;10.85;;;9.70;99.90;;;;;;5120621;27;20908;-74
2022/11/06 02:27:38;;;;;;;19.48;10.77;;;9.60;99.90;;;;;;5130746;27;21000;-73
2022/11/06 02:30:05;;;;;;;15.80;10.68;;;9.60;99.90;;;;;;5131490;27;21184;-74
2022/11/06 02:32:45;;;;;;;14.57;10.60;;;9.60;99.90;;;;;;5130720;27;20429;-74
2022/11/06 02:35:28;;;;;;;16.25;10.25;;;9.60;99.90;;;;;;5131334;27;20407;-74
2022/11/06 02:37:59;;;;;;;15.07;10.10;;;9.60;99.90;;;;;;5095948;27;20419;-74
2022/11/06 02:40:31;;;;;;;16.73;10.95;;;9.70;99.90;;;;;;5130105;27;20413;-73
2022/11/06 02:42:59;;;;;;;17.67;10.82;;;9.70;99.90;;;;;;5105485;27;20403;-73
2022/11/06 02:45:28;;;;;;;16.92;11.00;;;9.70;99.90;;;;;;5112254;27;20405;-74
2022/11/06 02:47:54;;;;;;;14.32;10.27;;;9.70;99.90;;;;;;5123688;27;20456;-74
2022/11/06 02:50:26;;;;;;;14.35;10.57;;;9.70;99.90;;;;;;5130216;27;20408;-74
2022/11/06 02:52:54;;;;;;;14.77;10.48;;;9.70;99.90;;;;;;5124483;27;20403;-73
2022/11/06 02:55:39;;;;;;;16.73;10.70;;;9.70;99.90;;;;;;5117898;27;20407;-74
2022/11/06 02:58:38;;;;;;;17.08;10.70;;;9.70;99.90;;;;;;5130676;27;21327;-74
2022/11/06 03:01:12;;;;;;;16.98;11.20;;;9.70;99.90;;;;;;5104152;27;20408;-74
2022/11/06 03:03:41;;;;;;;15.63;11.45;;;9.70;99.90;;;;;;5130666;27;20903;-73
2022/11/06 03:06:12;;;;;;;15.30;11.30;;;9.70;99.90;;;;;;5116835;27;20808;-73
2022/11/06 03:08:48;;;;;;;16.65;11.38;;;9.70;99.90;;;;;;5101767;27;20948;-73
2022/11/06 03:11:24;;;;;;;18.17;11.93;;;9.70;99.90;;;;;;5128468;27;20399;-74
2022/11/06 03:13:50;;;;;;;16.92;11.63;;;9.70;99.90;;;;;;5129467;27;20398;-74
2022/11/06 03:16:21;;;;;;;16.60;11.57;;;9.70;99.90;;;;;;5103035;28;20960;-73
2022/11/06 03:19:02;;;;;;;17.63;12.33;;;9.70;99.90;;;;;;5120317;27;20407;-74
2022/11/06 03:21:53;;;;;;;17.10;12.52;;;9.60;99.90;;;;;;5129361;27;20410;-74
2022/11/06 03:24:30;;;;;;;17.48;12.13;;;9.60;99.90;;;;;;5122056;27;20466;-74
2022/11/06 03:27:01;;;;;;;19.90;12.57;;;9.60;99.90;;;;;;5107261;27;20958;-73
2022/11/06 03:29:41;;;;;;;17.67;11.93;;;9.60;99.90;;;;;;5095083;27;20414;-74
2022/11/06 03:32:16;;;;;;;18.98;12.60;;;9.60;99.90;;;;;;5130171;27;20907;-74
2022/11/06 03:34:58;;;;;;;15.68;11.45;;;9.60;99.90;;;;;;5127256;27;20746;-73
2022/11/06 03:37:49;;;;;;;18.63;12.00;;;9.60;99.90;;;;;;5110502;27;20405;-74
2022/11/06 03:40:20;;;;;;;15.40;11.73;;;9.60;99.90;;;;;;5114318;27;20414;-74
2022/11/06 03:42:48;;;;;;;16.73;11.00;;;9.60;99.90;;;;;;5118839;27;20430;-74
2022/11/06 03:45:21;;;;;;;15.98;10.90;;;9.60;99.90;;;;;;5116250;27;20494;-74
2022/11/06 03:48:10;;;;;;;17.50;11.10;;;9.70;99.90;;;;;;5113239;27;20795;-74
2022/11/06 03:50:43;;;;;;;14.60;10.77;;;9.70;99.90;;;;;;5087058;27;20857;-73
2022/11/06 03:53:19;;;;;;;17.50;10.27;;;9.70;99.90;;;;;;5130271;27;20434;-74
2022/11/06 03:55:56;;;;;;;15.27;10.85;;;9.70;99.90;;;;;;5093745;27;20463;-74
2022/11/06 03:58:25;;;;;;;14.97;10.20;;;9.70;99.90;;;;;;5126613;27;20965;-74
2022/11/06 04:00:53;;;;;;;13.00;9.90;;;9.60;99.90;;;;;;5121199;27;20491;-73
2022/11/06 04:03:41;;;;;;;17.83;10.30;;;9.70;99.90;;;;;;5091908;27;20407;-74
2022/11/06 04:06:35;;;;;;;14.80;9.90;;;9.70;99.90;;;;;;5100853;28;20782;-74
2022/11/06 04:14:37;;;;;;;15.23;9.60;;;9.70;99.90;;;;;;5124975;27;20434;-73
2022/11/06 04:17:07;;;;;;;17.98;9.05;;;9.70;99.90;;;;;;5108768;27;20407;-74
2022/11/06 04:19:33;;;;;;;13.20;9.13;;;9.70;99.90;;;;;;5127166;27;20413;-74
2022/11/06 04:22:20;;;;;;;12.80;8.73;;;9.70;99.90;;;;;;5115004;27;20399;-74
2022/11/06 04:27:57;;;;;;;12.52;8.65;;;9.70;99.90;;;;;;5104155;27;20489;-74
2022/11/06 04:30:23;;;;;;;15.27;8.88;;;9.70;99.90;;;;;;5129165;27;20398;-74
2022/11/06 04:33:20;;;;;;;12.23;8.55;;;9.70;99.90;;;;;;5107030;28;20401;-74
2022/11/06 04:36:06;;;;;;;14.93;9.18;;;9.70;99.90;;;;;;5111573;27;20513;-74
2022/11/06 04:39:09;;;;;;;13.70;8.50;;;9.70;99.90;;;;;;5128967;27;20760;-74
2022/11/06 04:42:03;;;;;;;11.68;7.65;;;9.70;99.90;;;;;;5118280;28;20414;-73
2022/11/06 04:44:33;;;;;;;12.98;8.20;;;9.70;99.90;;;;;;5128754;27;20419;-74
2022/11/06 04:47:08;;;;;;;14.82;8.18;;;9.70;99.90;;;;;;5128549;27;20426;-74
2022/11/06 04:49:37;;;;;;;11.77;8.20;;;9.70;99.90;;;;;;5121545;28;20412;-74
2022/11/06 04:52:07;;;;;;;13.48;7.65;;;9.70;99.90;;;;;;5123379;28;20425;-74
2022/11/06 04:54:34;;;;;;;12.13;8.02;;;9.70;99.90;;;;;;5128536;28;21170;-74
2022/11/06 04:57:00;;;;;;;12.40;7.80;;;9.70;99.90;;;;;;5128944;28;20406;-74
2022/11/06 04:59:26;;;;;;;13.02;7.68;;;9.70;99.90;;;;;;5128464;28;20448;-74
2022/11/06 05:01:52;;;;;;;13.70;7.50;;;9.70;99.90;;;;;;5128703;28;20398;-74
2022/11/06 05:04:19;;;;;;;11.55;8.02;;;9.60;99.90;;;;;;5129198;28;20394;-73
2022/11/06 05:06:44;;;;;;;13.60;7.95;;;9.70;99.90;;;;;;5127788;28;20420;-74
2022/11/06 05:09:10;;;;;;;14.48;8.00;;;9.70;99.90;;;;;;5103296;28;20542;-74
2022/11/06 05:11:37;;;;;;;12.37;7.50;;;9.70;99.90;;;;;;5111014;27;20489;-74
2022/11/06 05:14:03;;;;;;;11.25;7.70;;;9.70;99.90;;;;;;5123262;27;20489;-74
2022/11/06 05:16:29;;;;;;;12.68;8.15;;;9.70;99.90;;;;;;5110483;27;20631;-74
2022/11/06 05:18:55;;;;;;;12.10;8.07;;;9.70;99.90;;;;;;5122287;27;20395;-74
2022/11/06 05:24:05;;;;;;;14.65;7.55;;;9.70;99.90;;;;;;5102033;28;21012;-74
2022/11/06 05:26:31;;;;;;;12.25;7.30;;;9.70;99.90;;;;;;5096961;28;20488;-74
2022/11/06 05:28:57;;;;;;;12.15;7.03;;;9.70;99.90;;;;;;5125130;27;20402;-74
2022/11/06 05:31:23;;;;;;;12.20;7.53;;;9.70;99.90;;;;;;5124866;27;20403;-74
2022/11/06 05:33:49;;;;;;;12.57;7.00;;;9.70;99.90;;;;;;5132300;27;20399;-74
2022/11/06 05:36:15;;;;;;;14.57;7.67;;;9.70;99.90;;;;;;5132519;27;20929;-74
2022/11/06 05:38:40;;;;;;;13.32;7.68;;;9.70;99.90;;;;;;5131128;27;20403;-74
2022/11/06 05:41:06;;;;;;;12.32;7.22;;;9.70;99.90;;;;;;5125955;27;20408;-74
2022/11/06 05:43:32;;;;;;;12.93;7.10;;;9.70;99.90;;;;;;5125256;27;20490;-73
2022/11/06 05:45:59;;;;;;;14.32;7.80;;;9.70;99.90;;;;;;5113897;27;20415;-74
2022/11/06 05:48:28;;;;;;;11.90;7.20;;;9.70;99.90;;;;;;5130790;27;20399;-74
2022/11/06 05:51:02;;;;;;;12.73;6.97;;;9.70;99.90;;;;;;5100722;27;20934;-74
2022/11/06 05:53:33;;;;;;;10.25;6.65;;;9.70;99.90;;;;;;5100253;27;20427;-74
2022/11/06 05:55:59;;;;;;;13.35;6.75;;;9.70;99.90;;;;;;5100224;28;20414;-74
2022/11/06 05:58:26;;;;;;;10.75;6.15;;;9.70;99.90;;;;;;5127225;27;21003;-75
2022/11/06 06:00:53;;;;;;;11.00;6.40;;;9.70;99.90;;;;;;5132169;27;20997;-74
2022/11/06 06:03:20;;;;;;;11.85;6.45;;;9.70;99.90;;;;;;5132104;27;21095;-74
2022/11/06 06:05:46;;;;;;;11.25;6.80;;;9.70;99.90;;;;;;5104647;28;20433;-74
2022/11/06 06:08:12;;;;;;;11.60;6.15;;;9.70;99.90;;;;;;5128391;27;20761;-74
2022/11/06 06:10:44;;;;;;;12.63;6.30;;;9.70;99.90;;;;;;5128859;27;20405;-74
2022/11/06 06:13:11;;;;;;;12.15;5.85;;;9.70;99.90;;;;;;5107602;28;20489;-74
2022/11/06 06:15:38;;;;;;;12.63;5.93;;;9.70;99.90;;;;;;5122092;27;20407;-74
2022/11/06 06:18:04;;;;;;;11.57;5.80;;;9.70;99.90;;;;;;5128803;27;20413;-74
2022/11/06 06:20:30;;;;;;;12.85;6.13;;;9.70;99.90;;;;;;5110105;28;20465;-74
2022/11/06 06:22:57;;;;;;;10.20;5.57;;;9.70;99.90;;;;;;5105355;27;20406;-74
2022/11/06 06:25:27;;;;;;;11.35;5.95;;;9.80;99.90;;;;;;5131708;27;20562;-74
2022/11/06 06:27:53;;;;;;;13.32;5.80;;;9.70;99.90;;;;;;5109250;28;20949;-74
2022/11/06 06:30:20;;;;;;;12.70;5.80;;;9.70;99.90;;;;;;5103110;27;20753;-74
2022/11/06 06:32:46;;;;;;;12.30;6.00;;;9.70;99.90;;;;;;5079349;28;20411;-74
2022/11/06 06:35:11;;;;;;;12.13;5.40;;;9.80;99.90;;;;;;5124034;27;20462;-74
2022/11/06 06:37:37;;;;;;;12.03;5.67;;;9.70;99.90;;;;;;5109176;28;20917;-74
2022/11/06 06:40:04;;;;;;;11.80;5.50;;;9.70;99.90;;;;;;5100352;28;20413;-74
2022/11/06 06:42:30;;;;;;;11.38;4.80;;;9.80;99.90;;;;;;5111881;27;20481;-74
2022/11/06 06:44:56;;;;;;;12.07;4.90;;;9.70;99.90;;;;;;5120022;27;20802;-74
2022/11/06 06:47:22;;;;;;;11.07;5.15;;;9.80;99.90;;;;;;5128450;27;20958;-74
2022/11/06 06:49:47;;;;;;;12.40;5.03;;;9.80;99.90;;;;;;5129738;27;20490;-74
2022/11/06 06:52:14;;;;;;;9.33;4.53;;;9.80;99.90;;;;;;5128126;27;20473;-74
2022/11/06 06:54:39;;;;;;;12.40;5.20;;;9.80;99.90;;;;;;5130646;27;20407;-74
2022/11/06 06:57:08;;;;;;;12.00;5.10;;;9.80;99.90;;;;;;5127081;27;20482;-74
2022/11/06 06:59:33;;;;;;;13.20;5.00;;;9.80;99.90;;;;;;5121494;27;20410;-74
2022/11/06 07:01:59;;;;;;;9.73;4.20;;;9.80;99.90;;;;;;5129501;27;20395;-74
2022/11/06 07:04:25;;;;;;;8.93;4.30;;;9.80;99.90;;;;;;5121856;27;20427;-74
2022/11/06 07:06:54;;;;;;;11.50;4.10;;;9.80;99.90;;;;;;5129732;27;20510;-74
2022/11/06 07:09:20;;;;;;;10.75;4.43;;;9.80;99.90;;;;;;5131219;27;20406;-74
2022/11/06 07:11:46;;;;;;;11.48;4.35;;;9.80;99.90;;;;;;5120532;27;20394;-74
2022/11/06 07:14:12;;;;;;;9.48;4.18;;;9.80;99.90;;;;;;5111503;27;20934;-74
2022/11/06 07:16:37;;;;;;;10.83;4.30;;;9.80;99.90;;;;;;5123710;27;20396;-74
2022/11/06 07:19:03;;;;;;;10.48;4.22;;;9.90;99.90;;;;;;5123540;27;20426;-74
2022/11/06 07:21:28;;;;;;;9.20;4.43;;;9.90;99.90;;;;;;5129883;27;20402;-74
2022/11/06 07:23:54;;;;;;;10.65;4.00;;;9.90;99.90;;;;;;5117244;27;20893;-74
2022/11/06 07:26:20;;;;;;;12.83;4.73;;;9.90;99.90;;;;;;5126837;27;21104;-74
2022/11/06 07:28:45;;;;;;;9.45;3.80;;;9.90;99.90;;;;;;5130221;27;20403;-74
2022/11/06 07:31:14;;;;;;;8.90;4.00;;;9.90;99.90;;;;;;5130001;27;20402;-74
2022/11/06 07:33:40;;;;;;;9.43;3.95;;;10.00;99.90;;;;;;5129270;27;20402;-74
2022/11/06 07:36:08;;;;;;;9.73;3.80;;;10.00;99.90;;;;;;5130448;27;20398;-74
2022/11/06 07:38:34;;;;;;;9.05;3.67;;;10.00;99.90;;;;;;5129558;27;20987;-74
2022/11/06 07:41:02;;;;;;;10.43;3.70;;;10.00;99.90;;;;;;5129651;27;20449;-74
2022/11/06 07:43:28;;;;;;;8.57;3.60;;;10.10;99.90;;;;;;5129977;27;20403;-74
2022/11/06 07:45:56;;;;;;;11.23;3.73;;;10.10;99.90;;;;;;5110618;27;20410;-74
2022/11/06 07:48:22;;;;;;;11.93;3.60;;;10.20;99.90;;;;;;5109690;28;20414;-74
2022/11/06 07:50:48;;;;;;;11.53;3.50;;;10.20;99.90;;;;;;5128829;27;20406;-74
2022/11/06 07:53:13;;;;;;;8.35;3.40;;;10.20;99.90;;;;;;5129912;27;20399;-74
2022/11/06 07:55:39;;;;;;;11.93;3.67;;;10.30;99.90;;;;;;5119118;27;20423;-74
2022/11/06 07:58:04;;;;;;;8.98;3.45;;;10.30;99.90;;;;;;5117249;27;20393;-73
2022/11/06 08:00:30;;;;;;;8.67;3.23;;;10.40;99.90;;;;;;5128500;27;20395;-74
2022/11/06 08:02:55;;;;;;;10.90;3.50;;;10.40;99.90;;;;;;5129286;27;20430;-74
2022/11/06 08:05:21;;;;;;;7.60;3.23;;;10.40;99.90;;;;;;5124003;27;20457;-74
2022/11/06 08:07:47;;;;;;;10.27;3.47;;;10.40;99.90;;;;;;5124655;27;20422;-74
2022/11/06 08:10:12;;;;;;;7.83;3.17;;;10.50;99.90;;;;;;5128148;27;20406;-74
2022/11/06 08:12:38;;;;;;;7.80;2.92;;;10.50;99.90;;;;;;5128805;27;20398;-75
2022/11/06 08:15:04;;;;;;;9.93;3.10;;;10.50;99.90;;;;;;5123957;27;21065;-74
2022/11/06 08:17:30;;;;;;;11.53;3.73;;;10.50;99.90;;;;;;5120789;27;20422;-74
2022/11/06 08:19:55;;;;;;;8.25;2.80;;;10.50;99.90;;;;;;5115130;27;20556;-74
2022/11/06 08:22:21;;;;;;;8.80;2.70;;;10.50;99.90;;;;;;5110665;27;20428;-74
2022/11/06 08:24:47;;;;;;;11.30;3.13;;;10.50;99.90;;;;;;5107226;28;20902;-74
2022/11/06 08:27:12;;;;;;;8.95;2.95;;;10.50;99.90;;;;;;5123322;27;20430;-74
2022/11/06 08:29:38;;;;;;;9.20;3.00;;;10.40;99.90;;;;;;5128074;27;20398;-74
2022/11/06 08:32:04;;;;;;;10.60;2.63;;;10.40;99.90;;;;;;5120604;27;20786;-74
2022/11/06 08:34:29;;;;;;;8.40;2.80;;;10.40;99.90;;;;;;5107251;28;21152;-74
2022/11/06 08:36:55;;;;;;;7.38;2.50;;;10.40;99.90;;;;;;5120750;27;20826;-74
2022/11/06 08:39:20;;;;;;;7.57;2.88;;;10.40;99.90;;;;;;5105511;28;20400;-74
2022/11/06 08:41:46;;;;;;;10.83;3.00;;;10.40;99.90;;;;;;5110690;28;20465;-74
2022/11/06 08:44:12;;;;;;;7.85;3.08;;;10.40;99.90;;;;;;5124232;27;20404;-74
2022/11/06 08:46:37;;;;;;;8.70;2.80;;;10.30;99.90;;;;;;5118080;28;20491;-74
2022/11/06 08:49:03;;;;;;;9.63;3.20;;;10.30;99.90;;;;;;5107004;28;20408;-74
2022/11/06 08:51:29;;;;;;;7.53;2.63;;;10.30;99.90;;;;;;5120586;28;20426;-74
2022/11/06 08:53:54;;;;;;;10.80;3.20;;;10.30;99.90;;;;;;5125440;28;20450;-74
2022/11/06 08:56:20;;;;;;;9.43;3.43;;;10.30;99.90;;;;;;5128989;28;20435;-74
2022/11/06 08:58:46;;;;;;;7.90;2.95;;;10.30;99.90;;;;;;5123957;28;20389;-74
2022/11/06 09:01:12;;;;;;;9.43;2.90;;;10.30;99.90;;;;;;5110016;28;20400;-74
2022/11/06 09:03:37;;;;;;;9.38;3.30;;;10.30;99.90;;;;;;5113618;28;20438;-74
2022/11/06 09:06:05;;;;;;;12.63;3.00;;;10.30;99.90;;;;;;5120808;28;20406;-74
2022/11/06 09:08:31;;;;;;;5.97;2.35;;;10.30;99.90;;;;;;5105922;28;20532;-74
2022/11/06 09:10:58;;;;;;;6.93;2.50;;;10.30;99.90;;;;;;5119857;28;20402;-74
2022/11/06 09:13:23;;;;;;;8.18;2.50;;;10.40;99.90;;;;;;5105698;28;20520;-74
2022/11/06 09:15:49;;;;;;;7.28;2.20;;;10.40;99.90;;;;;;5098481;28;20494;-74
2022/11/06 09:18:14;;;;;;;7.53;2.17;;;10.40;99.90;;;;;;5106420;28;20419;-74
2022/11/06 09:20:40;;;;;;;6.50;2.45;;;10.50;99.90;;;;;;5106777;28;20408;-74
2022/11/06 09:23:07;;;;;;;7.47;2.40;;;10.50;99.90;;;;;;5126106;28;20500;-74
2022/11/06 09:25:33;;;;;;;6.78;2.05;;;10.60;99.90;;;;;;5106865;28;20412;-74
2022/11/06 09:27:59;;;;;;;7.53;2.22;;;10.60;99.90;;;;;;5127975;28;20893;-74
2022/11/06 09:30:27;;;;;;;7.32;2.28;;;10.60;99.90;;;;;;5110241;28;20414;-74
2022/11/06 09:32:54;;;;;;;8.73;2.23;;;10.70;99.90;;;;;;5075165;28;20503;-74
2022/11/06 09:35:23;;;;;;;7.20;2.10;;;10.70;99.90;;;;;;5120777;28;20434;-74
2022/11/06 09:37:49;;;;;;;8.02;2.30;;;10.80;99.90;;;;;;5127756;28;20401;-74
2022/11/06 09:40:34;;;;;;;6.97;2.20;;;10.90;99.90;;;;;;5128269;28;20868;-74
2022/11/06 09:43:03;;;;;;;5.53;1.85;;;11.00;99.90;;;;;;5128381;28;20427;-74
2022/11/06 09:45:32;;;;;;;6.23;1.97;;;11.10;99.90;;;;;;5128055;28;20775;-74
2022/11/06 09:48:14;;;;;;;9.40;1.95;;;11.20;99.90;;;;;;5128397;28;20433;-74
2022/11/06 09:51:10;;;;;;;7.33;2.00;;;11.30;99.90;;;;;;5127435;28;20410;-75
2022/11/06 09:53:42;;;;;;;9.23;2.08;;;11.30;99.90;;;;;;5127971;28;20443;-74
2022/11/06 09:56:12;;;;;;;8.65;2.17;;;11.40;99.90;;;;;;5109195;28;20396;-74
2022/11/06 09:58:41;;;;;;;9.07;2.03;;;11.30;99.90;;;;;;5120940;27;20921;-74
2022/11/06 10:01:23;;;;;;;7.70;2.00;;;11.30;99.90;;;;;;5111817;27;20396;-75
2022/11/06 10:03:55;;;;;;;8.20;2.30;;;11.20;99.90;;;;;;5122680;27;20461;-74
2022/11/06 10:06:22;;;;;;;6.32;1.70;;;11.20;99.90;;;;;;5107368;27;20419;-74
2022/11/06 10:08:49;;;;;;;10.00;2.30;;;11.20;99.90;;;;;;5124746;27;20422;-74
2022/11/06 10:11:14;;;;;;;10.77;2.05;;;11.30;99.90;;;;;;5125185;27;20854;-75
2022/11/06 10:14:01;;;;;;;8.70;1.70;;;11.40;99.90;;;;;;5131802;27;20449;-74
2022/11/06 10:16:53;;;;;;;6.53;1.67;;;11.40;99.90;;;;;;5109440;27;20433;-74
2022/11/06 10:19:34;;;;;;;6.25;1.70;;;11.40;99.90;;;;;;5109703;28;20420;-74
2022/11/06 10:22:21;;;;;;;7.33;1.70;;;11.40;99.90;;;;;;5131240;27;21004;-75
2022/11/06 10:25:08;;;;;;;8.48;1.70;;;11.40;99.90;;;;;;5130981;27;20836;-74
2022/11/06 10:27:49;;;;;;;5.75;1.63;;;11.50;99.90;;;;;;5110683;27;20449;-75
2022/11/06 10:30:17;;;;;;;6.20;1.70;;;11.50;99.90;;;;;;5128161;27;20464;-74
2022/11/06 10:32:49;;;;;;;5.93;1.55;;;11.50;99.90;;;;;;5118399;27;20738;-74
2022/11/06 10:35:36;;;;;;;8.80;1.70;;;11.50;99.90;;;;;;5109796;28;20491;-74
2022/11/06 10:38:12;;;;;;;6.25;1.80;;;11.50;99.90;;;;;;5118726;27;20415;-75
2022/11/06 10:40:38;;;;;;;7.60;1.73;;;11.50;99.90;;;;;;5129048;27;20489;-74
2022/11/06 10:43:26;;;;;;;7.63;1.67;;;11.60;99.90;;;;;;5114177;27;20404;-75
2022/11/06 10:46:07;;;;;;;7.18;1.42;;;11.60;99.90;;;;;;5095426;27;20444;-74
2022/11/06 10:48:39;;;;;;;8.20;1.67;;;11.60;99.90;;;;;;5130763;27;20403;-75
2022/11/06 10:51:04;;;;;;;6.97;1.40;;;11.70;99.90;;;;;;5128898;27;20395;-75
2022/11/06 10:53:42;;;;;;;6.55;1.40;;;11.80;99.90;;;;;;5118099;27;20408;-75
2022/11/06 10:56:14;;;;;;;6.72;1.50;;;11.80;99.90;;;;;;5111633;27;20415;-75
2022/11/06 10:58:40;;;;;;;5.78;1.42;;;11.90;99.90;;;;;;5116210;27;20499;-75
2022/11/06 11:01:12;;;;;;;5.85;1.35;;;12.00;99.90;;;;;;5092726;28;20404;-75
2022/11/06 11:03:44;;;;;;;6.65;1.20;;;12.10;99.90;;;;;;5116719;27;20431;-75
2022/11/06 11:06:10;;;;;;;5.68;1.50;;;12.10;99.90;;;;;;5123114;27;20900;-75
2022/11/06 11:08:47;;;;;;;4.47;1.30;;;12.10;99.90;;;;;;5130721;27;20410;-74
2022/11/06 11:11:12;;;;;;;4.73;1.10;;;12.20;99.90;;;;;;5109274;28;20488;-75
2022/11/06 11:13:39;;;;;;;6.03;1.10;;;12.20;99.90;;;;;;5130251;27;20481;-75
2022/11/06 11:16:20;;;;;;;7.07;1.30;;;12.20;99.90;;;;;;5129986;27;20452;-74
2022/11/06 11:18:47;;;;;;;6.80;1.70;;;12.30;99.90;;;;;;5121578;27;20432;-75
2022/11/06 11:21:16;;;;;;;6.43;1.42;;;12.30;99.90;;;;;;5112154;27;20952;-75
2022/11/06 11:23:43;;;;;;;8.77;1.43;;;12.30;99.90;;;;;;5130240;27;20535;-75
2022/11/06 11:26:41;;;;;;;5.88;1.00;;;12.30;99.90;;;;;;5130794;27;20410;-75
2022/11/06 11:29:41;;;;;;;6.88;1.33;;;12.30;99.90;;;;;;5129867;27;21001;-74
2022/11/06 11:32:07;;;;;;;10.07;1.85;;;12.30;99.90;;;;;;5124218;27;21179;-75
2022/11/06 11:34:42;;;;;;;6.93;1.17;;;12.30;99.90;;;;;;5113179;27;20404;-75
2022/11/06 11:37:23;;;;;;;7.88;1.35;;;12.30;99.90;;;;;;5109860;28;20412;-75
2022/11/06 11:39:49;;;;;;;6.63;1.40;;;12.30;99.90;;;;;;5104822;28;20405;-74
2022/11/06 11:42:35;;;;;;;5.67;1.50;;;12.30;99.90;;;;;;5113709;27;20417;-75
2022/11/06 11:45:09;;;;;;;7.97;1.80;;;12.30;99.90;;;;;;5129046;27;20422;-75
2022/11/06 11:47:45;;;;;;;6.33;1.13;;;12.20;99.90;;;;;;5130091;27;20491;-75
2022/11/06 11:50:24;;;;;;;7.80;1.70;;;12.10;99.90;;;;;;5127274;27;20479;-75
2022/11/06 11:53:05;;;;;;;6.18;1.85;;;12.00;99.90;;;;;;5107679;28;20470;-74
2022/11/06 11:55:38;;;;;;;10.05;2.08;;;11.90;99.90;;;;;;5112830;27;20390;-74
2022/11/06 11:58:22;;;;;;;6.60;2.10;;;11.90;99.90;;;;;;5117873;27;20406;-74
2022/11/06 12:00:56;;;;;;;7.05;2.20;;;11.80;99.90;;;;;;5096050;28;20470;-74
2022/11/06 12:03:27;;;;;;;6.68;2.00;;;11.70;99.90;;;;;;5114318;27;20394;-74
2022/11/06 12:06:02;;;;;;;7.33;2.43;;;11.70;99.90;;;;;;5119582;27;20398;-74
2022/11/06 12:08:28;;;;;;;6.38;2.10;;;11.60;99.90;;;;;;5128130;27;20402;-74
2022/11/06 12:11:02;;;;;;;7.80;2.22;;;11.60;99.90;;;;;;5126450;27;20761;-74
2022/11/06 12:13:27;;;;;;;9.40;2.47;;;11.60;99.90;;;;;;5128178;27;20398;-74
2022/11/06 12:16:17;;;;;;;7.57;2.30;;;11.60;99.90;;;;;;5127991;27;20425;-74
2022/11/06 12:18:47;;;;;;;10.10;2.95;;;11.60;99.90;;;;;;5119101;27;20919;-74
2022/11/06 12:21:21;;;;;;;9.13;2.67;;;11.60;99.90;;;;;;5115561;27;20863;-74
2022/11/06 12:24:08;;;;;;;9.77;2.97;;;11.60;99.90;;;;;;5110669;27;20414;-74
2022/11/06 12:26:36;;;;;;;10.10;3.08;;;11.60;99.90;;;;;;5125532;27;20423;-74
2022/11/06 12:29:14;;;;;;;8.73;2.20;;;11.70;99.90;;;;;;5097787;28;20516;-74
2022/11/06 12:32:12;;;;;;;7.07;2.10;;;11.80;99.90;;;;;;5102488;28;20452;-74
2022/11/06 12:34:48;;;;;;;6.55;1.58;;;11.80;99.90;;;;;;5127329;27;20516;-74
2022/11/06 12:37:44;;;;;;;6.47;1.60;;;11.90;99.90;;;;;;5128274;27;20430;-74
2022/11/06 12:40:21;;;;;;;7.10;1.40;;;11.90;99.90;;;;;;5116467;27;20425;-74
2022/11/06 12:43:07;;;;;;;6.05;1.90;;;12.00;99.90;;;;;;5127957;27;20517;-74
2022/11/06 12:45:37;;;;;;;6.30;1.75;;;12.10;99.90;;;;;;5128410;27;20418;-74
2022/11/06 12:48:20;;;;;;;6.65;2.13;;;12.10;99.90;;;;;;5119622;27;20460;-74
2022/11/06 12:51:27;;;;;;;5.57;1.33;;;12.20;99.90;;;;;;5121077;27;20495;-74
2022/11/06 12:54:01;;;;;;;6.93;1.67;;;12.40;99.90;;;;;;5084418;28;20433;-74
2022/11/06 12:56:54;;;;;;;5.57;1.25;;;12.60;99.90;;;;;;5090379;28;20762;-74
2022/11/06 12:59:23;;;;;;;7.47;1.20;;;13.00;99.90;;;;;;5109698;28;20431;-74
2022/11/06 13:02:07;;;;;;;5.97;1.20;;;13.20;99.90;;;;;;5121843;28;20442;-74
2022/11/06 13:05:02;;;;;;;6.45;1.40;;;13.40;99.90;;;;;;5108882;28;20408;-74
2022/11/06 13:07:44;;;;;;;6.07;1.30;;;13.50;99.90;;;;;;5060513;28;20431;-74
2022/11/06 13:10:25;;;;;;;5.80;1.50;;;13.50;99.90;;;;;;5127580;28;20402;-74
2022/11/06 13:13:17;;;;;;;5.50;1.00;;;13.50;99.90;;;;;;5113992;28;20909;-74
2022/11/06 13:15:42;;;;;;;5.05;1.35;;;13.50;99.90;;;;;;5108530;28;20488;-75
2022/11/06 13:18:36;;;;;;;5.18;1.00;;;13.40;99.90;;;;;;5103554;28;20930;-74
2022/11/06 13:21:17;;;;;;;5.03;1.08;;;13.20;99.90;;;;;;5122022;28;20900;-74